Time;durP1;ratioP1;P1;durP2;ratioP2;P2;SDS_P1;SDS_P2;PMS_P1;PMS_P2;Temp;Humidity;BMP_temperature;BMP_pressure;BME280_temperature;BME280_humidity;BME280_pressure;Samples;Min_cycle;Max_cycle;Signal;HPM_P1;HPM_P2
2023/12/13 00:01:34;;;;;;;1.53;1.17;;;9.80;1.00;;;;;;4859413;29;20460;-75
2023/12/13 00:04:02;;;;;;;0.50;0.10;;;9.80;1.00;;;;;;4863428;29;20454;-75
2023/12/13 00:06:30;;;;;;;1.33;0.73;;;9.80;1.00;;;;;;4862646;29;20619;-75
2023/12/13 00:08:58;;;;;;;0.50;0.20;;;9.70;1.00;;;;;;4860360;29;20454;-75
2023/12/13 00:11:27;;;;;;;0.60;0.57;;;9.70;1.00;;;;;;4860085;29;20549;-75
2023/12/13 00:13:57;;;;;;;0.50;0.10;;;9.80;1.00;;;;;;4859830;29;20443;-75
2023/12/13 00:16:25;;;;;;;2.50;1.10;;;9.80;1.00;;;;;;4859472;29;20969;-75
2023/12/13 00:18:53;;;;;;;1.23;0.40;;;9.80;1.00;;;;;;4862408;29;20803;-75
2023/12/13 00:21:21;;;;;;;0.70;0.30;;;9.80;1.00;;;;;;4862961;29;20455;-75
2023/12/13 00:23:49;;;;;;;0.50;0.10;;;9.80;1.00;;;;;;4859921;29;20544;-75
2023/12/13 00:26:17;;;;;;;0.50;0.10;;;9.80;1.00;;;;;;4861283;29;20528;-75
2023/12/13 00:28:47;;;;;;;1.67;1.57;;;9.80;1.00;;;;;;4860126;29;20516;-75
2023/12/13 00:31:15;;;;;;;1.10;0.70;;;9.60;1.00;;;;;;4859179;29;20459;-76
2023/12/13 00:33:43;;;;;;;0.50;0.10;;;9.60;1.00;;;;;;4859123;29;20455;-74
2023/12/13 00:36:11;;;;;;;0.60;0.50;;;9.60;1.00;;;;;;4859189;29;20711;-75
2023/12/13 00:38:39;;;;;;;0.60;0.30;;;;;;;;;;4867537;29;20576;-75
2023/12/13 00:41:07;;;;;;;0.50;0.23;;;9.60;1.00;;;;;;4865488;29;20463;-75
2023/12/13 00:43:35;;;;;;;0.50;0.20;;;9.60;1.00;;;;;;4866926;29;20462;-75
2023/12/13 00:46:05;;;;;;;0.50;0.10;;;9.70;1.00;;;;;;4865930;29;20985;-75
2023/12/13 00:48:34;;;;;;;0.50;0.10;;;9.70;1.00;;;;;;4859640;29;20479;-74
2023/12/13 00:51:01;;;;;;;0.50;0.30;;;9.60;1.00;;;;;;4859216;29;20490;-76
2023/12/13 00:53:29;;;;;;;0.70;0.40;;;9.60;1.00;;;;;;4860029;29;20803;-76
2023/12/13 00:55:57;;;;;;;0.60;0.50;;;9.60;1.00;;;;;;4867427;29;20449;-76
2023/12/13 00:58:25;;;;;;;0.97;0.50;;;9.60;1.00;;;;;;4858986;29;21035;-76
2023/12/13 01:00:53;;;;;;;0.50;0.20;;;9.50;1.00;;;;;;4859149;29;20507;-76
2023/12/13 01:03:22;;;;;;;0.50;0.10;;;9.60;1.00;;;;;;4858689;29;20462;-75
2023/12/13 01:05:50;;;;;;;0.50;0.20;;;9.60;1.00;;;;;;4861259;29;20561;-75
2023/12/13 01:08:18;;;;;;;0.80;0.50;;;9.60;1.00;;;;;;4859588;29;20455;-75
2023/12/13 01:10:46;;;;;;;0.60;0.30;;;9.50;1.00;;;;;;4866535;29;20458;-76
2023/12/13 01:13:14;;;;;;;5.10;1.50;;;9.50;1.00;;;;;;4859438;29;20465;-75
2023/12/13 01:15:42;;;;;;;1.70;1.23;;;9.50;1.00;;;;;;4858622;29;20947;-75
2023/12/13 01:18:09;;;;;;;2.30;0.53;;;9.50;1.00;;;;;;4866597;29;20544;-75
2023/12/13 01:20:40;;;;;;;12.10;1.40;;;9.50;1.00;;;;;;4859429;29;20511;-75
2023/12/13 01:23:08;;;;;;;0.80;0.57;;;9.50;1.00;;;;;;4869445;29;20553;-76
2023/12/13 01:25:36;;;;;;;0.97;0.60;;;9.50;1.00;;;;;;4857682;29;20531;-76
2023/12/13 01:28:04;;;;;;;0.50;0.10;;;9.50;1.00;;;;;;4861161;29;20482;-75
2023/12/13 01:30:32;;;;;;;1.73;1.37;;;9.50;1.00;;;;;;4862799;29;20488;-75
2023/12/13 01:33:00;;;;;;;0.87;0.87;;;9.60;1.00;;;;;;4866002;29;20464;-75
2023/12/13 01:35:28;;;;;;;0.67;0.53;;;9.60;1.00;;;;;;4869828;29;20458;-76
2023/12/13 01:37:58;;;;;;;0.50;0.10;;;9.60;1.00;;;;;;4868378;29;20470;-76
2023/12/13 01:40:25;;;;;;;0.50;0.10;;;9.70;1.00;;;;;;4868738;29;20438;-76
2023/12/13 01:42:54;;;;;;;0.50;0.10;;;9.70;1.00;;;;;;4868144;29;20796;-77
2023/12/13 01:45:21;;;;;;;0.50;0.10;;;9.70;1.00;;;;;;4869077;29;20487;-76
2023/12/13 01:47:49;;;;;;;2.20;2.10;;;9.70;1.00;;;;;;4870983;29;20934;-76
2023/12/13 01:50:17;;;;;;;0.50;0.10;;;9.60;1.00;;;;;;4871949;29;20450;-76
2023/12/13 01:52:45;;;;;;;0.80;0.67;;;9.60;1.00;;;;;;4870043;29;20463;-75
2023/12/13 01:55:16;;;;;;;25.13;3.30;;;9.60;1.00;;;;;;4861318;29;20508;-75
2023/12/13 01:57:44;;;;;;;0.60;0.30;;;9.50;1.00;;;;;;4861366;29;20593;-76
2023/12/13 02:00:14;;;;;;;0.90;0.77;;;9.30;1.00;;;;;;4861320;29;20535;-76
2023/12/13 02:02:42;;;;;;;0.60;0.30;;;9.30;1.00;;;;;;4867380;29;20913;-75
2023/12/13 02:05:13;;;;;;;0.50;0.20;;;9.30;1.00;;;;;;4869425;29;20473;-76
2023/12/13 02:07:42;;;;;;;1.07;0.50;;;9.40;1.00;;;;;;4868464;29;20541;-75
2023/12/13 02:10:10;;;;;;;1.43;1.07;;;9.40;1.00;;;;;;4869556;29;20470;-76
2023/12/13 02:12:40;;;;;;;0.50;0.10;;;9.40;1.00;;;;;;4872086;29;20489;-75
2023/12/13 02:15:08;;;;;;;0.67;0.30;;;9.50;1.00;;;;;;4870400;29;20542;-75
2023/12/13 02:17:36;;;;;;;0.50;0.10;;;9.50;1.00;;;;;;4869940;29;20483;-75
2023/12/13 02:20:06;;;;;;;1.13;1.03;;;9.60;1.00;;;;;;4880218;29;20486;-75
2023/12/13 02:22:36;;;;;;;0.57;0.30;;;9.60;1.00;;;;;;4878167;29;20450;-75
2023/12/13 02:25:06;;;;;;;0.50;0.10;;;9.60;1.00;;;;;;4867495;29;20444;-76
2023/12/13 02:27:35;;;;;;;0.50;0.10;;;9.60;1.00;;;;;;4861689;29;20477;-76
2023/12/13 02:30:03;;;;;;;0.77;0.60;;;9.60;1.00;;;;;;4869108;29;20479;-75
2023/12/13 02:32:31;;;;;;;0.87;0.23;;;9.70;1.00;;;;;;4864808;29;20471;-75
2023/12/13 02:34:59;;;;;;;0.80;0.30;;;;;;;;;;4869672;29;20460;-76
2023/12/13 02:37:27;;;;;;;2.43;2.33;;;9.60;1.00;;;;;;4863553;29;20986;-76
2023/12/13 02:39:58;;;;;;;0.50;0.20;;;9.60;1.00;;;;;;4869883;29;20543;-75
2023/12/13 02:42:26;;;;;;;1.30;1.20;;;9.60;1.00;;;;;;4861709;29;20527;-76
2023/12/13 02:44:54;;;;;;;0.60;0.30;;;9.70;1.00;;;;;;4861753;29;20547;-75
2023/12/13 02:47:25;;;;;;;0.50;0.10;;;9.60;1.00;;;;;;4861436;29;20470;-76
2023/12/13 02:49:53;;;;;;;1.27;0.77;;;9.70;1.00;;;;;;4868670;29;20462;-75
2023/12/13 02:52:21;;;;;;;0.50;0.10;;;9.70;1.00;;;;;;4866881;29;20450;-74
2023/12/13 02:54:49;;;;;;;0.50;0.10;;;;;;;;;;4863414;29;20943;-77
2023/12/13 02:57:18;;;;;;;0.70;0.50;;;9.70;1.00;;;;;;4904970;23;20589;-76
2023/12/13 02:59:46;;;;;;;0.50;0.10;;;9.70;1.00;;;;;;4889958;29;20840;-75
2023/12/13 03:02:14;;;;;;;11.40;1.30;;;9.60;1.00;;;;;;4889464;29;20921;-75
2023/12/13 03:04:42;;;;;;;2.00;1.40;;;;;;;;;;4888464;29;20549;-75
2023/12/13 03:07:10;;;;;;;4.83;4.53;;;9.30;1.00;;;;;;4896783;29;20505;-76
2023/12/13 03:09:39;;;;;;;1.40;1.30;;;;;;;;;;4888092;29;20461;-76
2023/12/13 03:12:07;;;;;;;0.50;0.10;;;9.30;1.00;;;;;;4884536;29;20942;-76
2023/12/13 03:14:37;;;;;;;0.60;0.50;;;;;;;;;;4888297;29;20543;-76
2023/12/13 03:17:05;;;;;;;0.50;0.20;;;9.20;1.00;;;;;;4883469;29;20529;-75
2023/12/13 03:19:32;;;;;;;0.50;0.20;;;9.20;1.00;;;;;;4898968;29;20569;-75
2023/12/13 03:22:00;;;;;;;0.50;0.20;;;9.30;1.00;;;;;;4891109;29;20453;-75
2023/12/13 03:24:28;;;;;;;0.50;0.10;;;9.30;1.00;;;;;;4898737;29;20503;-75
2023/12/13 03:26:56;;;;;;;1.27;0.87;;;9.30;1.00;;;;;;4890203;29;20466;-75
2023/12/13 03:29:24;;;;;;;0.50;0.10;;;9.30;1.00;;;;;;4897676;29;20482;-75
2023/12/13 03:31:53;;;;;;;0.50;0.10;;;9.30;1.00;;;;;;4897933;29;20760;-75
2023/12/13 03:34:21;;;;;;;0.50;0.10;;;9.40;1.00;;;;;;4893420;29;20520;-75
2023/12/13 03:36:49;;;;;;;0.50;0.10;;;9.40;1.00;;;;;;4888201;29;20561;-75
2023/12/13 03:39:17;;;;;;;0.50;0.20;;;9.50;1.00;;;;;;4895194;29;20461;-75
2023/12/13 03:41:45;;;;;;;0.50;0.10;;;9.50;1.00;;;;;;4887677;29;20456;-75
2023/12/13 03:44:12;;;;;;;0.50;0.10;;;9.50;1.00;;;;;;4898390;29;20878;-77
2023/12/13 03:46:40;;;;;;;0.50;0.10;;;9.50;1.00;;;;;;4890385;29;20565;-73
2023/12/13 03:49:10;;;;;;;0.50;0.10;;;9.60;1.00;;;;;;4875984;29;20468;-74
2023/12/13 03:51:37;;;;;;;0.50;0.10;;;9.60;1.00;;;;;;4889617;29;20446;-75
2023/12/13 03:54:05;;;;;;;0.50;0.10;;;9.60;1.00;;;;;;4895070;29;20482;-75
2023/12/13 03:56:33;;;;;;;0.50;0.10;;;9.60;1.00;;;;;;4886171;29;20545;-75
2023/12/13 03:59:00;;;;;;;0.50;0.10;;;9.70;1.00;;;;;;4897967;29;21019;-75
2023/12/13 04:01:28;;;;;;;0.50;0.10;;;9.70;1.00;;;;;;4891416;29;20517;-75
2023/12/13 04:03:56;;;;;;;0.50;0.10;;;9.70;1.00;;;;;;4881359;29;20497;-77
2023/12/13 04:06:26;;;;;;;0.50;0.10;;;9.70;1.00;;;;;;4890958;29;20469;-76
2023/12/13 04:08:53;;;;;;;0.50;0.10;;;9.70;1.00;;;;;;4898903;29;20453;-76
2023/12/13 04:11:21;;;;;;;0.50;0.10;;;9.70;1.00;;;;;;4895000;29;20493;-75
2023/12/13 04:13:49;;;;;;;0.60;0.47;;;9.60;1.00;;;;;;4898432;29;20473;-76
2023/12/13 04:16:17;;;;;;;0.50;0.10;;;9.60;1.00;;;;;;4896250;29;20563;-75
2023/12/13 04:18:45;;;;;;;0.50;0.10;;;9.60;1.00;;;;;;4886639;29;20467;-77
2023/12/13 04:21:13;;;;;;;0.50;0.10;;;9.60;1.00;;;;;;4899337;29;20485;-76
2023/12/13 04:23:42;;;;;;;0.50;0.10;;;9.60;1.00;;;;;;4899557;29;20536;-75
2023/12/13 04:26:10;;;;;;;0.50;0.10;;;9.60;1.00;;;;;;4883879;29;20489;-76
2023/12/13 04:28:38;;;;;;;0.63;0.63;;;9.60;1.00;;;;;;4885614;29;20451;-75
2023/12/13 04:31:06;;;;;;;0.50;0.10;;;9.60;1.00;;;;;;4894349;29;20921;-76
2023/12/13 04:33:35;;;;;;;0.50;0.10;;;9.60;1.00;;;;;;4885841;29;20834;-76
2023/12/13 04:36:03;;;;;;;0.50;0.10;;;9.60;1.00;;;;;;4886145;29;20478;-76
2023/12/13 04:38:33;;;;;;;0.50;0.10;;;9.60;1.00;;;;;;4900256;29;20951;-76
2023/12/13 04:41:03;;;;;;;0.50;0.10;;;9.60;1.00;;;;;;4896066;29;20938;-76
2023/12/13 04:43:31;;;;;;;0.50;0.10;;;9.60;1.00;;;;;;4891700;29;20556;-76
2023/12/13 04:45:59;;;;;;;0.77;0.30;;;9.60;1.00;;;;;;4890245;29;20470;-76
2023/12/13 04:48:26;;;;;;;0.50;0.10;;;9.60;1.00;;;;;;4888381;29;20458;-75
2023/12/13 04:50:54;;;;;;;0.50;0.10;;;9.50;1.00;;;;;;4890115;29;20458;-76
2023/12/13 04:53:22;;;;;;;1.03;1.03;;;9.40;1.00;;;;;;4892501;29;20493;-76
2023/12/13 04:55:50;;;;;;;1.00;0.20;;;9.40;1.00;;;;;;4887095;29;20542;-76
2023/12/13 04:58:19;;;;;;;0.50;0.10;;;9.50;1.00;;;;;;4885613;29;20887;-75
2023/12/13 05:00:48;;;;;;;0.50;0.10;;;9.30;1.00;;;;;;4897237;29;20854;-75
2023/12/13 05:03:16;;;;;;;0.50;0.10;;;9.40;1.00;;;;;;4891861;29;20688;-75
2023/12/13 05:05:44;;;;;;;0.50;0.10;;;9.40;1.00;;;;;;4899724;29;21012;-76
2023/12/13 05:08:12;;;;;;;1.40;1.30;;;9.40;1.00;;;;;;4886440;29;20451;-76
2023/12/13 05:10:43;;;;;;;0.50;0.10;;;9.40;1.00;;;;;;4895546;29;20443;-74
2023/12/13 05:13:11;;;;;;;1.00;0.90;;;9.30;1.00;;;;;;4886569;29;20456;-75
2023/12/13 05:15:40;;;;;;;0.60;0.30;;;9.30;1.00;;;;;;4891408;29;20530;-76
2023/12/13 05:18:09;;;;;;;0.50;0.10;;;;;;;;;;4884427;29;20439;-76
2023/12/13 05:20:37;;;;;;;16.43;1.80;;;9.30;1.00;;;;;;4896049;29;20493;-76
2023/12/13 05:23:05;;;;;;;0.50;0.10;;;9.40;1.00;;;;;;4891199;29;20454;-76
2023/12/13 05:25:34;;;;;;;0.50;0.20;;;9.40;1.00;;;;;;4897272;29;20480;-74
2023/12/13 05:28:02;;;;;;;0.90;0.63;;;9.40;1.00;;;;;;4915043;29;20488;-75
2023/12/13 05:30:30;;;;;;;0.50;0.10;;;9.50;1.00;;;;;;4904184;29;20446;-75
2023/12/13 05:32:59;;;;;;;0.50;0.10;;;9.50;1.00;;;;;;4891209;29;20502;-75
2023/12/13 05:35:27;;;;;;;0.87;0.67;;;9.60;1.00;;;;;;4894437;29;20468;-76
2023/12/13 05:37:55;;;;;;;0.50;0.10;;;9.60;1.00;;;;;;4887553;29;20565;-75
2023/12/13 05:40:23;;;;;;;0.73;0.67;;;9.60;1.00;;;;;;4889154;29;20862;-75
2023/12/13 05:42:51;;;;;;;0.50;0.30;;;9.50;1.00;;;;;;4884664;29;20491;-75
2023/12/13 05:45:19;;;;;;;0.50;0.20;;;9.50;1.00;;;;;;4884973;29;20574;-75
2023/12/13 05:47:46;;;;;;;0.50;0.10;;;9.50;1.00;;;;;;4881850;29;20553;-75
2023/12/13 05:50:16;;;;;;;0.50;0.10;;;9.40;1.00;;;;;;4875080;29;20460;-75
2023/12/13 05:52:45;;;;;;;0.50;0.10;;;9.40;1.00;;;;;;4881346;29;20462;-74
2023/12/13 05:55:13;;;;;;;0.50;0.20;;;9.40;1.00;;;;;;4874631;29;20450;-75
2023/12/13 05:57:41;;;;;;;1.70;1.60;;;9.30;1.00;;;;;;4881184;29;20482;-75
2023/12/13 06:00:09;;;;;;;1.13;0.67;;;9.20;1.00;;;;;;4880967;29;20864;-76
2023/12/13 06:02:38;;;;;;;0.50;0.10;;;9.20;1.00;;;;;;4881780;29;20481;-76
2023/12/13 06:05:22;;;;;;;0.70;0.40;;;9.10;1.00;;;;;;4875141;29;20477;-77
2023/12/13 06:07:51;;;;;;;4.70;0.30;;;9.20;1.00;;;;;;4881190;29;20474;-76
2023/12/13 06:10:19;;;;;;;0.50;0.10;;;9.10;1.00;;;;;;4881628;29;20469;-75
2023/12/13 06:12:50;;;;;;;0.50;0.10;;;;;;;;;;4882040;29;20953;-75
2023/12/13 06:15:18;;;;;;;0.50;0.10;;;9.30;1.00;;;;;;4880989;29;20976;-76
2023/12/13 06:17:46;;;;;;;0.50;0.10;;;9.30;1.00;;;;;;4881123;29;20486;-76
2023/12/13 06:20:14;;;;;;;0.60;0.40;;;9.30;1.00;;;;;;4877586;29;20530;-75
2023/12/13 06:22:44;;;;;;;0.50;0.20;;;9.30;1.00;;;;;;4880739;29;20485;-75
2023/12/13 06:25:12;;;;;;;0.50;0.10;;;9.40;1.00;;;;;;4881291;29;20562;-75
2023/12/13 06:27:40;;;;;;;0.50;0.10;;;9.40;1.00;;;;;;4881174;29;21007;-75
2023/12/13 06:30:10;;;;;;;0.60;0.40;;;9.30;1.00;;;;;;4882424;29;20510;-78
2023/12/13 06:32:39;;;;;;;0.50;0.10;;;9.30;1.00;;;;;;4881405;29;20448;-75
2023/12/13 06:35:07;;;;;;;0.50;0.10;;;9.30;1.00;;;;;;4881569;29;20537;-76
2023/12/13 06:37:35;;;;;;;0.50;0.10;;;9.30;1.00;;;;;;4882419;29;20466;-77
2023/12/13 06:40:06;;;;;;;0.50;0.20;;;9.20;1.00;;;;;;4883132;29;20454;-75
2023/12/13 06:42:34;;;;;;;0.50;0.10;;;9.20;1.00;;;;;;4884412;29;20524;-76
2023/12/13 06:45:02;;;;;;;0.80;0.70;;;9.10;1.00;;;;;;4883073;29;20594;-76
2023/12/13 06:47:30;;;;;;;0.77;0.67;;;9.20;1.00;;;;;;4883310;29;20492;-77
2023/12/13 06:49:58;;;;;;;1.00;0.37;;;9.30;1.00;;;;;;4882547;29;20502;-75
2023/12/13 06:52:26;;;;;;;0.50;0.10;;;9.30;1.00;;;;;;4875453;29;20453;-74
2023/12/13 06:54:56;;;;;;;0.50;0.10;;;9.40;1.00;;;;;;4880621;29;20458;-76
2023/12/13 06:57:25;;;;;;;0.50;0.10;;;9.40;1.00;;;;;;4880133;29;21281;-75
2023/12/13 06:59:53;;;;;;;0.50;0.10;;;9.40;1.00;;;;;;4880224;29;20505;-75
2023/12/13 07:02:22;;;;;;;0.50;0.20;;;9.30;1.00;;;;;;4876929;29;20486;-75
2023/12/13 07:04:49;;;;;;;0.57;0.20;;;9.40;1.00;;;;;;4875442;29;20547;-76
2023/12/13 07:07:17;;;;;;;0.50;0.10;;;9.40;1.00;;;;;;4878845;29;20498;-76
2023/12/13 07:09:46;;;;;;;0.50;0.10;;;9.40;1.00;;;;;;4880443;29;20525;-76
2023/12/13 07:12:14;;;;;;;0.60;0.30;;;9.40;1.00;;;;;;4879645;29;20464;-76
2023/12/13 07:14:43;;;;;;;0.50;0.10;;;9.40;1.00;;;;;;4878057;29;20534;-75
2023/12/13 07:17:11;;;;;;;0.50;0.10;;;9.40;1.00;;;;;;4879517;29;20481;-74
2023/12/13 07:19:38;;;;;;;0.50;0.10;;;9.40;1.00;;;;;;4883284;29;20494;-74
2023/12/13 07:22:07;;;;;;;0.50;0.20;;;9.40;1.00;;;;;;4884031;29;20560;-76
2023/12/13 07:24:35;;;;;;;0.87;0.33;;;9.40;1.00;;;;;;4882837;29;20452;-76
2023/12/13 07:27:03;;;;;;;0.50;0.10;;;9.50;1.00;;;;;;4880609;29;20516;-75
2023/12/13 07:29:33;;;;;;;0.50;0.10;;;9.50;1.00;;;;;;4880040;29;20958;-75
2023/12/13 07:32:04;;;;;;;0.50;0.10;;;9.50;1.00;;;;;;4880299;29;20537;-75
2023/12/13 07:34:32;;;;;;;0.50;0.10;;;9.50;1.00;;;;;;4880057;29;20458;-75
2023/12/13 07:37:00;;;;;;;0.60;0.50;;;9.50;1.00;;;;;;4879684;29;20478;-75
2023/12/13 07:39:30;;;;;;;0.50;0.10;;;9.40;1.00;;;;;;4881206;29;20472;-78
2023/12/13 07:41:58;;;;;;;0.50;0.10;;;9.40;1.00;;;;;;4876246;29;20911;-75
2023/12/13 07:44:28;;;;;;;2.43;0.87;;;9.40;1.00;;;;;;4883521;29;20486;-74
2023/12/13 07:46:56;;;;;;;1.43;0.60;;;9.30;1.00;;;;;;4879820;29;20895;-75
2023/12/13 07:49:25;;;;;;;0.50;0.20;;;9.40;1.00;;;;;;4880253;29;20442;-76
2023/12/13 07:51:54;;;;;;;0.60;0.23;;;9.40;1.00;;;;;;4883228;29;20538;-76
2023/12/13 07:54:22;;;;;;;0.50;0.20;;;9.40;1.00;;;;;;4877565;29;20455;-75
2023/12/13 07:56:52;;;;;;;0.50;0.10;;;9.40;1.00;;;;;;4881824;29;20563;-74
2023/12/13 07:59:20;;;;;;;0.90;0.57;;;9.50;1.00;;;;;;4887678;29;20456;-75
2023/12/13 08:01:49;;;;;;;0.50;0.10;;;9.50;1.00;;;;;;4887633;29;20481;-75
2023/12/13 08:04:17;;;;;;;0.50;0.10;;;9.50;1.00;;;;;;4889178;29;20533;-76
2023/12/13 08:06:46;;;;;;;0.50;0.30;;;9.50;1.00;;;;;;4888483;29;20837;-76
2023/12/13 08:09:15;;;;;;;0.50;0.10;;;9.50;1.00;;;;;;4882100;29;20883;-75
2023/12/13 08:11:44;;;;;;;0.50;0.20;;;9.40;1.00;;;;;;4882637;29;20455;-76
2023/12/13 08:14:11;;;;;;;0.50;0.10;;;9.50;1.00;;;;;;4885572;29;20494;-75
2023/12/13 08:16:39;;;;;;;0.50;0.20;;;9.50;1.00;;;;;;4879403;29;20482;-76
2023/12/13 08:19:07;;;;;;;0.50;0.10;;;9.60;1.00;;;;;;4890667;29;20442;-75
2023/12/13 08:21:40;;;;;;;0.50;0.20;;;9.60;1.00;;;;;;4904039;29;20428;-74
2023/12/13 08:24:10;;;;;;;0.50;0.10;;;9.60;1.00;;;;;;4902370;29;20480;-76
2023/12/13 08:26:38;;;;;;;0.50;0.10;;;9.70;1.00;;;;;;4890129;29;21032;-75
2023/12/13 08:29:06;;;;;;;6.63;2.10;;;9.70;1.00;;;;;;4900165;29;20485;-74
2023/12/13 08:31:35;;;;;;;1.43;0.60;;;9.60;1.00;;;;;;4894129;29;20864;-75
2023/12/13 08:34:03;;;;;;;0.60;0.20;;;7.80;1.00;;;;;;4884201;29;20441;-75
2023/12/13 08:36:31;;;;;;;0.50;0.10;;;9.60;1.00;;;;;;4882864;29;20478;-76
2023/12/13 08:39:00;;;;;;;0.50;0.10;;;9.60;1.00;;;;;;4900177;29;20857;-76
2023/12/13 08:41:29;;;;;;;0.50;0.10;;;9.70;1.00;;;;;;4896766;29;20553;-74
2023/12/13 08:43:57;;;;;;;0.50;0.10;;;9.70;1.00;;;;;;4887742;29;20561;-75
2023/12/13 08:46:25;;;;;;;0.83;0.83;;;9.70;1.00;;;;;;4894199;29;20469;-76
2023/12/13 08:48:53;;;;;;;0.50;0.10;;;9.70;1.00;;;;;;4904564;29;20457;-75
2023/12/13 08:51:21;;;;;;;0.50;0.10;;;9.80;1.00;;;;;;4904084;29;20454;-76
2023/12/13 08:53:54;;;;;;;0.50;0.10;;;9.80;1.00;;;;;;4907313;29;20456;-76
2023/12/13 08:56:22;;;;;;;0.97;0.87;;;9.80;1.00;;;;;;4890062;29;20531;-75
2023/12/13 08:58:51;;;;;;;0.50;0.10;;;9.80;1.00;;;;;;4888017;29;20454;-75
2023/12/13 09:01:19;;;;;;;0.50;0.17;;;9.90;1.00;;;;;;4886174;29;20461;-76
2023/12/13 09:03:52;;;;;;;1.57;0.87;;;9.70;1.00;;;;;;4886161;29;20497;-76
2023/12/13 09:06:20;;;;;;;0.93;0.53;;;9.70;1.00;;;;;;4887514;29;20477;-75
2023/12/13 09:08:48;;;;;;;1.77;1.17;;;9.70;1.00;;;;;;4887914;29;20451;-76
2023/12/13 09:11:16;;;;;;;7.63;1.73;;;9.60;1.00;;;;;;4893006;29;20491;-75
2023/12/13 09:13:44;;;;;;;1.10;0.63;;;9.60;1.00;;;;;;4898871;29;20525;-75
2023/12/13 09:16:14;;;;;;;0.60;0.30;;;9.40;1.00;;;;;;4902874;29;20493;-75
2023/12/13 09:18:43;;;;;;;0.50;0.10;;;9.50;1.00;;;;;;4892959;29;20471;-76
2023/12/13 09:21:11;;;;;;;0.60;0.30;;;9.50;1.00;;;;;;4892039;29;20946;-76
2023/12/13 09:23:40;;;;;;;2.20;2.00;;;9.50;1.00;;;;;;4889435;29;20476;-76
2023/12/13 09:26:13;;;;;;;0.50;0.10;;;9.60;1.00;;;;;;4913454;29;20482;-75
2023/12/13 09:28:41;;;;;;;3.50;1.23;;;;;;;;;;4910998;29;20841;-76
2023/12/13 09:31:10;;;;;;;0.50;0.10;;;9.60;1.00;;;;;;4896943;29;20551;-75
2023/12/13 09:33:39;;;;;;;0.50;0.10;;;9.70;1.00;;;;;;4890979;29;20443;-75
2023/12/13 09:36:09;;;;;;;1.13;1.03;;;9.80;1.00;;;;;;4895568;29;21076;-74
2023/12/13 09:38:37;;;;;;;0.70;0.53;;;9.80;1.00;;;;;;4894956;29;20471;-75
2023/12/13 09:41:06;;;;;;;0.50;0.27;;;;;;;;;;4884993;29;20525;-74
2023/12/13 09:43:35;;;;;;;1.30;0.97;;;9.90;1.00;;;;;;4891524;29;21006;-76
2023/12/13 09:46:05;;;;;;;0.50;0.10;;;;;;;;;;4896047;29;20541;-75
2023/12/13 09:48:34;;;;;;;0.50;0.20;;;10.10;1.00;;;;;;4889432;29;20551;-77
2023/12/13 09:51:06;;;;;;;0.70;0.70;;;10.10;1.00;;;;;;4896295;29;20445;-76
2023/12/13 09:53:35;;;;;;;0.50;0.10;;;10.20;1.00;;;;;;4894617;29;20447;-76
2023/12/13 09:56:04;;;;;;;0.50;0.10;;;10.30;1.00;;;;;;4901931;29;20563;-76
2023/12/13 09:58:33;;;;;;;0.50;0.10;;;;;;;;;;4886757;29;20960;-77
2023/12/13 10:01:05;;;;;;;0.50;0.10;;;10.40;1.00;;;;;;4882555;29;20447;-76
2023/12/13 10:03:33;;;;;;;0.50;0.10;;;10.60;1.00;;;;;;4882441;29;20518;-75
2023/12/13 10:06:02;;;;;;;0.50;0.10;;;10.60;1.00;;;;;;4882320;29;20475;-75
2023/12/13 10:08:31;;;;;;;0.50;0.20;;;10.70;1.00;;;;;;4881727;29;20537;-75
2023/12/13 10:10:59;;;;;;;0.50;0.10;;;10.80;1.00;;;;;;4881749;29;20493;-76
2023/12/13 10:13:27;;;;;;;0.50;0.10;;;10.80;1.00;;;;;;4880585;29;20442;-75
2023/12/13 10:15:55;;;;;;;0.50;0.10;;;;;;;;;;4889810;29;20448;-75
2023/12/13 10:18:23;;;;;;;0.50;0.10;;;10.80;1.00;;;;;;4885622;29;20476;-75
2023/12/13 10:20:51;;;;;;;0.50;0.10;;;10.80;1.00;;;;;;4879178;29;20500;-76
2023/12/13 10:23:19;;;;;;;0.50;0.10;;;10.80;1.00;;;;;;4881009;29;20519;-77
2023/12/13 10:25:48;;;;;;;0.70;0.20;;;10.90;1.00;;;;;;4881343;29;20459;-76
2023/12/13 10:28:20;;;;;;;0.50;0.10;;;10.80;1.00;;;;;;4880837;29;20458;-75
2023/12/13 10:30:50;;;;;;;0.50;0.20;;;10.70;1.00;;;;;;4880939;29;20471;-75
2023/12/13 10:33:19;;;;;;;0.50;0.10;;;10.80;1.00;;;;;;4880186;29;20811;-76
2023/12/13 10:35:47;;;;;;;0.70;0.20;;;10.70;1.00;;;;;;4880646;29;20457;-75
2023/12/13 10:38:16;;;;;;;0.50;0.10;;;10.70;1.00;;;;;;4880676;29;20555;-76
2023/12/13 10:40:44;;;;;;;0.50;0.10;;;12.40;1.00;;;;;;4880883;29;20452;-76
2023/12/13 10:43:15;;;;;;;0.50;0.10;;;10.90;1.00;;;;;;4881238;29;20460;-76
2023/12/13 10:45:49;;;;;;;0.50;0.10;;;10.80;1.00;;;;;;4880837;29;20951;-77
2023/12/13 10:48:18;;;;;;;0.50;0.10;;;10.80;1.00;;;;;;4880259;29;20457;-76
2023/12/13 10:50:48;;;;;;;0.50;0.10;;;10.80;1.00;;;;;;4880284;29;20541;-75
2023/12/13 10:53:17;;;;;;;0.50;0.10;;;10.90;1.00;;;;;;4880435;29;20835;-76
2023/12/13 10:55:46;;;;;;;0.50;0.10;;;10.90;1.00;;;;;;4879888;29;20502;-75
2023/12/13 10:58:17;;;;;;;0.50;0.10;;;10.90;1.00;;;;;;4879746;29;20893;-75
2023/12/13 11:00:46;;;;;;;0.50;0.10;;;10.90;1.00;;;;;;4878634;29;20463;-75
2023/12/13 11:03:19;;;;;;;0.50;0.10;;;11.00;1.00;;;;;;4880090;29;20447;-75
2023/12/13 11:05:47;;;;;;;1.37;0.87;;;11.00;1.00;;;;;;4879514;29;21003;-75
2023/12/13 11:08:16;;;;;;;0.50;0.20;;;10.80;1.00;;;;;;4879608;29;20553;-77
2023/12/13 11:11:00;;;;;;;0.50;0.20;;;10.70;99.90;;;;;;4880391;29;20486;-75
2023/12/13 11:13:30;;;;;;;0.50;0.10;;;10.60;99.90;;;;;;4888002;29;20485;-74
2023/12/13 11:15:58;;;;;;;0.70;0.30;;;;;;;;;;4899679;29;20539;-75
2023/12/13 11:18:26;;;;;;;3.07;1.23;;;10.50;99.90;;;;;;4898728;29;20457;-75
2023/12/13 11:20:55;;;;;;;0.70;0.60;;;10.50;99.90;;;;;;4896709;29;20459;-75
2023/12/13 11:23:27;;;;;;;1.17;0.80;;;10.30;99.90;;;;;;4887312;29;20533;-75
2023/12/13 11:25:55;;;;;;;0.93;0.60;;;10.30;99.90;;;;;;4884527;29;20482;-75
2023/12/13 11:28:24;;;;;;;0.70;0.30;;;10.30;99.90;;;;;;4880272;29;20485;-75
2023/12/13 11:30:55;;;;;;;0.50;0.20;;;10.30;99.90;;;;;;4881653;29;20459;-76
2023/12/13 11:33:23;;;;;;;0.50;0.10;;;10.30;99.90;;;;;;4880729;29;20447;-76
2023/12/13 11:35:51;;;;;;;0.80;0.50;;;10.40;99.90;;;;;;4880563;29;20950;-76
2023/12/13 11:38:19;;;;;;;1.43;1.03;;;10.50;99.90;;;;;;4880245;29;20531;-76
2023/12/13 11:40:47;;;;;;;0.50;0.20;;;10.50;99.90;;;;;;4882737;29;20454;-77
2023/12/13 11:43:15;;;;;;;0.50;0.10;;;10.60;99.90;;;;;;4881116;29;20454;-77
2023/12/13 11:45:58;;;;;;;1.37;0.70;;;;;;;;;;4877063;29;20494;-78
2023/12/13 11:48:43;;;;;;;1.07;0.53;;;;;;;;;;4880424;29;20468;-76
2023/12/13 11:51:13;;;;;;;1.53;0.77;;;10.60;99.90;;;;;;4878324;29;20845;-75
2023/12/13 11:53:42;;;;;;;0.50;0.10;;;10.60;99.90;;;;;;4879215;29;20667;-75
2023/12/13 11:56:11;;;;;;;0.60;0.37;;;10.60;99.90;;;;;;4878517;29;20480;-76
2023/12/13 11:58:40;;;;;;;0.50;0.10;;;10.60;99.90;;;;;;4872613;29;21024;-77
2023/12/13 12:01:11;;;;;;;0.50;0.10;;;10.70;99.90;;;;;;4877611;29;20468;-76
2023/12/13 12:03:43;;;;;;;0.50;0.20;;;;;;;;;;4870863;29;20461;-77
2023/12/13 12:06:15;;;;;;;0.50;0.20;;;10.80;99.90;;;;;;4879086;29;20507;-76
2023/12/13 12:08:44;;;;;;;0.50;0.10;;;10.90;99.90;;;;;;4879419;29;20520;-76
2023/12/13 12:11:13;;;;;;;0.50;0.10;;;11.00;99.90;;;;;;4877148;29;20447;-75
2023/12/13 12:13:42;;;;;;;0.60;0.30;;;11.10;99.90;;;;;;4877637;29;20540;-75
2023/12/13 12:16:11;;;;;;;0.50;0.10;;;11.10;99.90;;;;;;4877207;29;20621;-77
2023/12/13 12:18:39;;;;;;;0.60;0.23;;;11.00;99.90;;;;;;4876965;29;20512;-75
2023/12/13 12:21:09;;;;;;;0.50;0.10;;;11.00;99.90;;;;;;4870548;29;20479;-75
2023/12/13 12:23:40;;;;;;;0.60;0.50;;;11.00;99.90;;;;;;4878235;29;20448;-76
2023/12/13 12:26:08;;;;;;;0.60;0.33;;;11.00;99.90;;;;;;4878156;29;20497;-76
2023/12/13 12:28:38;;;;;;;0.50;0.10;;;11.00;99.90;;;;;;4871114;29;20453;-78
2023/12/13 12:31:08;;;;;;;0.50;0.10;;;11.10;99.90;;;;;;4878340;29;20451;-76
2023/12/13 12:33:38;;;;;;;0.50;0.10;;;11.10;99.90;;;;;;4871661;29;20533;-76
2023/12/13 12:36:09;;;;;;;3.07;2.87;;;11.00;99.90;;;;;;4878718;29;20459;-76
2023/12/13 12:38:37;;;;;;;0.50;0.10;;;11.10;99.90;;;;;;4868125;29;20892;-75
2023/12/13 12:41:05;;;;;;;0.50;0.20;;;11.10;99.90;;;;;;4874082;29;20526;-76
2023/12/13 12:43:37;;;;;;;17.30;4.93;;;11.00;99.90;;;;;;4877621;29;20800;-76
2023/12/13 12:46:05;;;;;;;0.50;0.10;;;11.00;99.90;;;;;;4871735;29;20494;-77
2023/12/13 12:48:33;;;;;;;0.50;0.10;;;11.00;99.90;;;;;;4877998;29;20604;-76
2023/12/13 12:51:01;;;;;;;0.50;0.10;;;11.10;99.90;;;;;;4877805;29;20833;-75
2023/12/13 12:53:31;;;;;;;0.50;0.30;;;11.10;99.90;;;;;;4878517;29;20463;-75
2023/12/13 12:55:59;;;;;;;0.50;0.10;;;11.20;99.90;;;;;;4878028;29;20571;-76
2023/12/13 12:58:31;;;;;;;0.50;0.20;;;11.20;99.90;;;;;;4877365;29;20459;-76
2023/12/13 13:00:59;;;;;;;0.50;0.10;;;11.20;99.90;;;;;;4877968;29;20934;-77
2023/12/13 13:03:27;;;;;;;0.50;0.10;;;11.30;99.90;;;;;;4878205;29;20491;-75
2023/12/13 13:05:55;;;;;;;0.70;0.20;;;11.30;99.90;;;;;;4878170;29;21126;-74
2023/12/13 13:08:23;;;;;;;0.50;0.10;;;11.40;99.90;;;;;;4877711;29;20488;-75
2023/12/13 13:10:52;;;;;;;0.50;0.10;;;11.40;99.90;;;;;;4878609;29;20483;-75
2023/12/13 13:13:20;;;;;;;0.50;0.10;;;11.40;99.90;;;;;;4878829;29;20464;-75
2023/12/13 13:15:48;;;;;;;0.60;0.20;;;11.40;99.90;;;;;;4879077;29;20533;-76